sensor_id;sensor_type;location;lat;lon;timestamp;pressure;altitude;pressure_sealevel;temperature;humidity
77871;BME280;67067;46.850;7.578;2023-07-29T00:00:44;95004.00;;;16.23;52.91
77871;BME280;67067;46.850;7.578;2023-07-29T00:01:45;95011.09;;;16.14;53.18
77871;BME280;67067;46.850;7.578;2023-07-29T00:02:47;95003.00;;;16.19;52.99
77871;BME280;67067;46.850;7.578;2023-07-29T00:03:49;94999.75;;;16.22;53.31
77871;BME280;67067;46.850;7.578;2023-07-29T00:04:51;95005.34;;;16.07;53.65
77871;BME280;67067;46.850;7.578;2023-07-29T00:05:52;95005.84;;;16.09;53.39
77871;BME280;67067;46.850;7.578;2023-07-29T00:06:54;95009.00;;;16.11;53.06
77871;BME280;67067;46.850;7.578;2023-07-29T00:07:56;95008.66;;;15.98;53.27
77871;BME280;67067;46.850;7.578;2023-07-29T00:08:58;95004.44;;;16.11;53.27
77871;BME280;67067;46.850;7.578;2023-07-29T00:09:59;95006.47;;;16.00;53.22
77871;BME280;67067;46.850;7.578;2023-07-29T00:11:03;95003.66;;;16.11;53.11
77871;BME280;67067;46.850;7.578;2023-07-29T00:12:05;95012.69;;;16.15;53.11
77871;BME280;67067;46.850;7.578;2023-07-29T00:13:07;95007.72;;;16.08;53.21
77871;BME280;67067;46.850;7.578;2023-07-29T00:14:09;95008.50;;;16.09;53.18
77871;BME280;67067;46.850;7.578;2023-07-29T00:15:11;95006.47;;;16.00;53.58
77871;BME280;67067;46.850;7.578;2023-07-29T00:16:12;95003.38;;;16.12;53.14
77871;BME280;67067;46.850;7.578;2023-07-29T00:17:17;95005.75;;;16.14;53.03
77871;BME280;67067;46.850;7.578;2023-07-29T00:18:18;95000.78;;;16.07;53.09
77871;BME280;67067;46.850;7.578;2023-07-29T00:19:20;95004.09;;;16.18;52.77
77871;BME280;67067;46.850;7.578;2023-07-29T00:20:25;94996.66;;;16.15;52.84
77871;BME280;67067;46.850;7.578;2023-07-29T00:21:28;94992.19;;;16.10;53.09
77871;BME280;67067;46.850;7.578;2023-07-29T00:22:33;95006.13;;;16.07;53.10
77871;BME280;67067;46.850;7.578;2023-07-29T00:23:34;95010.38;;;16.08;53.41
77871;BME280;67067;46.850;7.578;2023-07-29T00:24:36;95003.63;;;15.97;53.72
77871;BME280;67067;46.850;7.578;2023-07-29T00:25:38;95001.00;;;16.11;53.23
77871;BME280;67067;46.850;7.578;2023-07-29T00:26:39;94994.16;;;16.04;53.35
77871;BME280;67067;46.850;7.578;2023-07-29T00:27:42;94996.94;;;16.13;53.35
77871;BME280;67067;46.850;7.578;2023-07-29T00:28:43;94992.31;;;16.19;52.78
77871;BME280;67067;46.850;7.578;2023-07-29T00:29:45;95001.59;;;16.08;53.35
77871;BME280;67067;46.850;7.578;2023-07-29T00:30:49;94995.00;;;16.19;52.94
77871;BME280;67067;46.850;7.578;2023-07-29T00:31:51;94999.44;;;16.24;52.98
77871;BME280;67067;46.850;7.578;2023-07-29T00:32:54;95004.00;;;16.23;52.76
77871;BME280;67067;46.850;7.578;2023-07-29T00:33:58;95006.56;;;16.28;52.99
77871;BME280;67067;46.850;7.578;2023-07-29T00:34:59;95015.84;;;16.17;53.03
77871;BME280;67067;46.850;7.578;2023-07-29T00:36:02;95007.66;;;16.27;52.96
77871;BME280;67067;46.850;7.578;2023-07-29T00:37:04;95009.44;;;16.32;52.88
77871;BME280;67067;46.850;7.578;2023-07-29T00:38:07;95021.19;;;16.31;52.66
77871;BME280;67067;46.850;7.578;2023-07-29T00:39:09;95021.97;;;16.17;53.21
77871;BME280;67067;46.850;7.578;2023-07-29T00:40:21;95026.44;;;16.22;53.41
77871;BME280;67067;46.850;7.578;2023-07-29T00:41:26;95032.19;;;16.29;53.32
77871;BME280;67067;46.850;7.578;2023-07-29T00:42:30;95027.13;;;16.28;53.30
77871;BME280;67067;46.850;7.578;2023-07-29T00:43:34;95030.31;;;16.30;53.61
77871;BME280;67067;46.850;7.578;2023-07-29T00:44:36;95019.63;;;16.30;53.30
77871;BME280;67067;46.850;7.578;2023-07-29T00:45:38;95022.19;;;16.21;53.47
77871;BME280;67067;46.850;7.578;2023-07-29T00:46:45;95015.59;;;16.32;53.21
77871;BME280;67067;46.850;7.578;2023-07-29T00:47:47;95007.97;;;16.40;53.42
77871;BME280;67067;46.850;7.578;2023-07-29T00:48:51;95014.13;;;16.40;53.11
77871;BME280;67067;46.850;7.578;2023-07-29T00:49:52;95012.72;;;16.43;53.20
77871;BME280;67067;46.850;7.578;2023-07-29T00:50:54;95009.94;;;16.34;53.48
77871;BME280;67067;46.850;7.578;2023-07-29T00:51:56;95014.22;;;16.49;53.10
77871;BME280;67067;46.850;7.578;2023-07-29T00:52:59;95013.13;;;16.50;52.94
77871;BME280;67067;46.850;7.578;2023-07-29T00:54:02;95020.66;;;16.48;53.30
77871;BME280;67067;46.850;7.578;2023-07-29T00:55:06;95011.06;;;16.47;53.42
77871;BME280;67067;46.850;7.578;2023-07-29T00:56:08;95019.56;;;16.49;53.16
77871;BME280;67067;46.850;7.578;2023-07-29T00:57:14;95009.38;;;16.51;53.07
77871;BME280;67067;46.850;7.578;2023-07-29T00:58:19;95008.78;;;16.54;53.33
77871;BME280;67067;46.850;7.578;2023-07-29T00:59:21;95009.28;;;16.56;53.47
77871;BME280;67067;46.850;7.578;2023-07-29T01:00:25;95010.88;;;16.57;53.13
77871;BME280;67067;46.850;7.578;2023-07-29T01:01:30;95015.81;;;16.50;53.67
77871;BME280;67067;46.850;7.578;2023-07-29T01:02:35;95019.06;;;16.47;54.00
77871;BME280;67067;46.850;7.578;2023-07-29T01:03:37;95018.28;;;16.46;53.96
77871;BME280;67067;46.850;7.578;2023-07-29T01:04:39;95017.97;;;16.48;53.87
77871;BME280;67067;46.850;7.578;2023-07-29T01:05:58;95029.84;;;16.42;53.80
77871;BME280;67067;46.850;7.578;2023-07-29T01:08:46;95040.69;;;16.31;54.10
77871;BME280;67067;46.850;7.578;2023-07-29T01:10:10;95052.25;;;16.27;54.67
77871;BME280;67067;46.850;7.578;2023-07-29T01:11:43;95072.69;;;16.17;55.14
77871;BME280;67067;46.850;7.578;2023-07-29T01:12:54;95087.25;;;16.25;54.34
77871;BME280;67067;46.850;7.578;2023-07-29T01:14:14;95079.75;;;16.27;54.64
77871;BME280;67067;46.850;7.578;2023-07-29T01:15:32;95069.25;;;16.31;54.77
77871;BME280;67067;46.850;7.578;2023-07-29T01:16:42;95060.47;;;16.30;55.22
77871;BME280;67067;46.850;7.578;2023-07-29T01:17:50;95050.88;;;16.29;55.12
77871;BME280;67067;46.850;7.578;2023-07-29T01:18:55;95052.97;;;16.32;55.10
77871;BME280;67067;46.850;7.578;2023-07-29T01:20:14;95054.00;;;16.17;56.40
77871;BME280;67067;46.850;7.578;2023-07-29T01:21:16;95053.06;;;16.27;56.02
77871;BME280;67067;46.850;7.578;2023-07-29T01:22:21;95057.41;;;16.23;56.19
77871;BME280;67067;46.850;7.578;2023-07-29T01:23:25;95060.56;;;16.25;56.00
77871;BME280;67067;46.850;7.578;2023-07-29T01:24:27;95074.00;;;16.20;56.33
77871;BME280;67067;46.850;7.578;2023-07-29T01:25:29;95074.41;;;16.27;55.83
77871;BME280;67067;46.850;7.578;2023-07-29T01:26:33;95064.19;;;16.15;56.04
77871;BME280;67067;46.850;7.578;2023-07-29T01:27:37;95060.72;;;16.15;55.90
77871;BME280;67067;46.850;7.578;2023-07-29T01:28:39;95050.78;;;16.01;56.07
77871;BME280;67067;46.850;7.578;2023-07-29T01:29:41;95051.94;;;15.95;56.05
77871;BME280;67067;46.850;7.578;2023-07-29T01:30:43;95061.66;;;16.05;56.03
77871;BME280;67067;46.850;7.578;2023-07-29T01:31:48;95063.97;;;16.12;56.42
77871;BME280;67067;46.850;7.578;2023-07-29T01:33:16;95061.09;;;16.08;57.41
77871;BME280;67067;46.850;7.578;2023-07-29T01:34:26;95063.41;;;16.15;56.99
77871;BME280;67067;46.850;7.578;2023-07-29T01:35:42;95052.13;;;16.18;57.16
77871;BME280;67067;46.850;7.578;2023-07-29T01:36:45;95042.66;;;16.26;57.04
77871;BME280;67067;46.850;7.578;2023-07-29T01:37:51;95040.19;;;16.29;57.03
77871;BME280;67067;46.850;7.578;2023-07-29T01:38:54;95043.88;;;16.33;57.04
77871;BME280;67067;46.850;7.578;2023-07-29T01:39:59;95047.03;;;16.36;56.94
77871;BME280;67067;46.850;7.578;2023-07-29T01:41:04;95036.94;;;16.32;57.06
77871;BME280;67067;46.850;7.578;2023-07-29T01:42:10;95042.56;;;16.31;57.36
77871;BME280;67067;46.850;7.578;2023-07-29T01:43:14;95039.03;;;16.36;57.25
77871;BME280;67067;46.850;7.578;2023-07-29T01:44:20;95033.91;;;16.39;57.31
77871;BME280;67067;46.850;7.578;2023-07-29T01:45:28;95029.94;;;16.37;57.62
77871;BME280;67067;46.850;7.578;2023-07-29T01:46:33;95027.47;;;16.40;57.51
77871;BME280;67067;46.850;7.578;2023-07-29T01:47:36;95022.63;;;16.42;57.46
77871;BME280;67067;46.850;7.578;2023-07-29T01:48:40;95017.28;;;16.42;57.92
77871;BME280;67067;46.850;7.578;2023-07-29T01:49:41;95022.81;;;16.46;57.97
77871;BME280;67067;46.850;7.578;2023-07-29T01:50:43;95024.13;;;16.15;59.27
77871;BME280;67067;46.850;7.578;2023-07-29T01:51:45;95025.25;;;16.28;58.53
77871;BME280;67067;46.850;7.578;2023-07-29T01:52:51;95025.47;;;16.32;58.12
77871;BME280;67067;46.850;7.578;2023-07-29T01:53:53;95019.84;;;16.33;57.94
77871;BME280;67067;46.850;7.578;2023-07-29T01:54:56;95028.13;;;16.32;57.76
77871;BME280;67067;46.850;7.578;2023-07-29T01:55:58;95023.00;;;16.36;57.98
77871;BME280;67067;46.850;7.578;2023-07-29T01:57:03;95017.06;;;16.39;57.88
77871;BME280;67067;46.850;7.578;2023-07-29T01:58:04;95011.53;;;16.35;58.09
77871;BME280;67067;46.850;7.578;2023-07-29T01:59:09;95002.22;;;16.32;58.04
77871;BME280;67067;46.850;7.578;2023-07-29T02:00:15;95001.63;;;16.36;57.43
77871;BME280;67067;46.850;7.578;2023-07-29T02:01:19;94998.47;;;16.33;57.42
77871;BME280;67067;46.850;7.578;2023-07-29T02:02:20;94996.06;;;16.18;57.31
77871;BME280;67067;46.850;7.578;2023-07-29T02:03:22;94995.91;;;16.28;57.33
77871;BME280;67067;46.850;7.578;2023-07-29T02:04:24;94993.13;;;16.33;57.24
77871;BME280;67067;46.850;7.578;2023-07-29T02:05:25;94987.75;;;16.19;57.32
77871;BME280;67067;46.850;7.578;2023-07-29T02:06:27;94980.47;;;16.25;57.27
77871;BME280;67067;46.850;7.578;2023-07-29T02:07:29;94982.31;;;16.25;56.89
77871;BME280;67067;46.850;7.578;2023-07-29T02:08:34;94990.66;;;16.23;56.80
77871;BME280;67067;46.850;7.578;2023-07-29T02:09:36;94996.56;;;16.20;57.69
77871;BME280;67067;46.850;7.578;2023-07-29T02:10:38;95005.13;;;16.03;57.87
77871;BME280;67067;46.850;7.578;2023-07-29T02:11:39;95011.78;;;16.19;57.65
77871;BME280;67067;46.850;7.578;2023-07-29T02:12:41;95006.94;;;16.08;57.81
77871;BME280;67067;46.850;7.578;2023-07-29T02:13:43;95012.38;;;16.16;57.88
77871;BME280;67067;46.850;7.578;2023-07-29T02:14:45;95013.09;;;16.22;57.50
77871;BME280;67067;46.850;7.578;2023-07-29T02:15:47;95010.91;;;16.24;57.56
77871;BME280;67067;46.850;7.578;2023-07-29T02:16:48;95005.75;;;16.14;57.65
77871;BME280;67067;46.850;7.578;2023-07-29T02:17:51;95021.59;;;16.24;57.68
77871;BME280;67067;46.850;7.578;2023-07-29T02:18:53;95032.47;;;16.28;57.70
77871;BME280;67067;46.850;7.578;2023-07-29T02:19:57;95038.63;;;16.28;57.93
77871;BME280;67067;46.850;7.578;2023-07-29T02:20:59;95043.31;;;16.17;57.95
77871;BME280;67067;46.850;7.578;2023-07-29T02:22:01;95044.75;;;16.29;57.46
77871;BME280;67067;46.850;7.578;2023-07-29T02:23:02;95048.88;;;16.21;57.75
77871;BME280;67067;46.850;7.578;2023-07-29T02:24:04;95056.22;;;16.29;57.74
77871;BME280;67067;46.850;7.578;2023-07-29T02:25:06;95074.59;;;16.31;57.53
77871;BME280;67067;46.850;7.578;2023-07-29T02:26:08;95086.59;;;16.33;57.50
77871;BME280;67067;46.850;7.578;2023-07-29T02:27:10;95091.63;;;16.35;56.90
77871;BME280;67067;46.850;7.578;2023-07-29T02:28:12;95082.78;;;16.21;57.45
77871;BME280;67067;46.850;7.578;2023-07-29T02:29:14;95076.25;;;16.13;57.74
77871;BME280;67067;46.850;7.578;2023-07-29T02:30:16;95073.22;;;16.00;57.38
77871;BME280;67067;46.850;7.578;2023-07-29T02:31:22;95077.19;;;16.03;57.41
77871;BME280;67067;46.850;7.578;2023-07-29T02:32:25;95087.69;;;15.94;57.67
77871;BME280;67067;46.850;7.578;2023-07-29T02:33:27;95077.00;;;15.94;57.56
77871;BME280;67067;46.850;7.578;2023-07-29T02:34:29;95075.16;;;15.95;57.86
77871;BME280;67067;46.850;7.578;2023-07-29T02:35:31;95074.91;;;15.91;57.74
77871;BME280;67067;46.850;7.578;2023-07-29T02:36:33;95081.34;;;15.90;57.73
77871;BME280;67067;46.850;7.578;2023-07-29T02:37:36;95072.84;;;15.88;57.93
77871;BME280;67067;46.850;7.578;2023-07-29T02:38:38;95078.25;;;15.83;58.05
77871;BME280;67067;46.850;7.578;2023-07-29T02:39:39;95075.56;;;15.83;58.31
77871;BME280;67067;46.850;7.578;2023-07-29T02:40:41;95065.72;;;15.83;57.92
77871;BME280;67067;46.850;7.578;2023-07-29T02:41:43;95061.72;;;15.81;57.74
77871;BME280;67067;46.850;7.578;2023-07-29T02:42:45;95061.88;;;15.70;57.88
77871;BME280;67067;46.850;7.578;2023-07-29T02:43:52;95058.84;;;15.58;58.22
77871;BME280;67067;46.850;7.578;2023-07-29T02:44:56;95057.28;;;15.57;58.38
77871;BME280;67067;46.850;7.578;2023-07-29T02:45:58;95070.97;;;15.69;58.04
77871;BME280;67067;46.850;7.578;2023-07-29T02:47:06;95080.84;;;15.88;57.66
77871;BME280;67067;46.850;7.578;2023-07-29T02:48:07;95096.50;;;15.95;57.32
77871;BME280;67067;46.850;7.578;2023-07-29T02:49:09;95095.75;;;15.89;57.24
77871;BME280;67067;46.850;7.578;2023-07-29T02:50:11;95073.50;;;15.99;57.26
77871;BME280;67067;46.850;7.578;2023-07-29T02:51:12;95075.69;;;15.97;57.42
77871;BME280;67067;46.850;7.578;2023-07-29T02:52:14;95075.75;;;16.11;57.34
77871;BME280;67067;46.850;7.578;2023-07-29T02:53:16;95066.25;;;16.18;57.68
77871;BME280;67067;46.850;7.578;2023-07-29T02:54:17;95057.97;;;16.20;57.69
77871;BME280;67067;46.850;7.578;2023-07-29T02:55:23;95064.09;;;16.21;57.48
77871;BME280;67067;46.850;7.578;2023-07-29T02:56:25;95070.75;;;16.23;57.85
77871;BME280;67067;46.850;7.578;2023-07-29T02:57:27;95078.16;;;16.26;57.59
77871;BME280;67067;46.850;7.578;2023-07-29T02:58:33;95065.31;;;16.28;57.24
77871;BME280;67067;46.850;7.578;2023-07-29T02:59:35;95059.38;;;16.31;57.31
77871;BME280;67067;46.850;7.578;2023-07-29T03:00:37;95049.50;;;16.32;56.77
77871;BME280;67067;46.850;7.578;2023-07-29T03:01:40;95056.41;;;16.19;57.01
77871;BME280;67067;46.850;7.578;2023-07-29T03:02:42;95057.97;;;16.20;57.33
77871;BME280;67067;46.850;7.578;2023-07-29T03:03:44;95054.22;;;16.21;57.32
77871;BME280;67067;46.850;7.578;2023-07-29T03:04:48;95051.75;;;16.25;57.24
77871;BME280;67067;46.850;7.578;2023-07-29T03:05:49;95053.63;;;16.24;57.88
77871;BME280;67067;46.850;7.578;2023-07-29T03:06:51;95055.38;;;16.15;58.04
77871;BME280;67067;46.850;7.578;2023-07-29T03:07:53;95056.09;;;16.21;58.46
77871;BME280;67067;46.850;7.578;2023-07-29T03:08:57;95054.41;;;16.25;58.07
77871;BME280;67067;46.850;7.578;2023-07-29T03:09:59;95047.88;;;16.17;58.12
77871;BME280;67067;46.850;7.578;2023-07-29T03:11:12;95045.81;;;16.28;57.91
77871;BME280;67067;46.850;7.578;2023-07-29T03:12:17;95060.88;;;16.38;57.62
77871;BME280;67067;46.850;7.578;2023-07-29T03:13:23;95060.31;;;16.41;57.88
77871;BME280;67067;46.850;7.578;2023-07-29T03:14:27;95069.41;;;16.40;58.03
77871;BME280;67067;46.850;7.578;2023-07-29T03:15:29;95072.66;;;16.37;58.24
77871;BME280;67067;46.850;7.578;2023-07-29T03:16:31;95082.53;;;16.36;58.16
77871;BME280;67067;46.850;7.578;2023-07-29T03:17:34;95077.50;;;16.34;58.03
77871;BME280;67067;46.850;7.578;2023-07-29T03:18:36;95072.38;;;16.38;57.86
77871;BME280;67067;46.850;7.578;2023-07-29T03:19:38;95068.63;;;16.39;58.09
77871;BME280;67067;46.850;7.578;2023-07-29T03:20:40;95074.09;;;16.29;58.31
77871;BME280;67067;46.850;7.578;2023-07-29T03:21:42;95072.66;;;16.37;57.86
77871;BME280;67067;46.850;7.578;2023-07-29T03:22:44;95065.81;;;16.30;57.87
77871;BME280;67067;46.850;7.578;2023-07-29T03:23:45;95071.28;;;16.39;58.07
77871;BME280;67067;46.850;7.578;2023-07-29T03:24:47;95068.50;;;16.30;57.89
77871;BME280;67067;46.850;7.578;2023-07-29T03:25:49;95073.06;;;16.44;58.04
77871;BME280;67067;46.850;7.578;2023-07-29T03:26:52;95062.69;;;16.42;58.27
77871;BME280;67067;46.850;7.578;2023-07-29T03:27:54;95057.81;;;16.30;58.31
77871;BME280;67067;46.850;7.578;2023-07-29T03:28:56;95055.97;;;16.45;58.12
77871;BME280;67067;46.850;7.578;2023-07-29T03:29:58;95053.09;;;16.41;58.54
77871;BME280;67067;46.850;7.578;2023-07-29T03:31:01;95052.28;;;16.41;58.22
77871;BME280;67067;46.850;7.578;2023-07-29T03:32:04;95054.97;;;16.41;58.35
77871;BME280;67067;46.850;7.578;2023-07-29T03:33:08;95059.22;;;16.42;58.48
77871;BME280;67067;46.850;7.578;2023-07-29T03:34:09;95061.72;;;16.19;59.69
77871;BME280;67067;46.850;7.578;2023-07-29T03:35:15;95050.50;;;16.36;58.70
77871;BME280;67067;46.850;7.578;2023-07-29T03:36:17;95045.38;;;16.40;58.53
77871;BME280;67067;46.850;7.578;2023-07-29T03:37:20;95047.53;;;16.38;58.55
77871;BME280;67067;46.850;7.578;2023-07-29T03:38:23;95059.53;;;16.40;58.68
77871;BME280;67067;46.850;7.578;2023-07-29T03:39:27;95059.22;;;16.42;58.41
77871;BME280;67067;46.850;7.578;2023-07-29T03:40:29;95054.97;;;16.41;58.36
77871;BME280;67067;46.850;7.578;2023-07-29T03:41:31;95061.38;;;16.40;58.22
77871;BME280;67067;46.850;7.578;2023-07-29T03:42:33;95048.50;;;16.28;58.57
77871;BME280;67067;46.850;7.578;2023-07-29T03:43:35;95060.31;;;16.41;58.16
77871;BME280;67067;46.850;7.578;2023-07-29T03:44:41;95055.19;;;16.44;58.33
77871;BME280;67067;46.850;7.578;2023-07-29T03:45:43;95050.94;;;16.43;58.35
77871;BME280;67067;46.850;7.578;2023-07-29T03:46:45;95061.31;;;16.45;58.50
77871;BME280;67067;46.850;7.578;2023-07-29T03:47:46;95058.63;;;16.45;58.50
77871;BME280;67067;46.850;7.578;2023-07-29T03:48:51;95065.56;;;16.46;58.59
77871;BME280;67067;46.850;7.578;2023-07-29T03:49:53;95069.31;;;16.45;58.34
77871;BME280;67067;46.850;7.578;2023-07-29T03:50:57;95071.00;;;16.41;58.52
77871;BME280;67067;46.850;7.578;2023-07-29T03:51:59;95074.41;;;16.27;58.75
77871;BME280;67067;46.850;7.578;2023-07-29T03:53:01;95084.66;;;16.39;58.31
77871;BME280;67067;46.850;7.578;2023-07-29T03:54:03;95078.72;;;16.42;58.43
77871;BME280;67067;46.850;7.578;2023-07-29T03:55:05;95087.09;;;16.36;58.52
77871;BME280;67067;46.850;7.578;2023-07-29T03:56:07;95084.75;;;16.48;58.36
77871;BME280;67067;46.850;7.578;2023-07-29T03:57:09;95087.91;;;16.50;58.43
77871;BME280;67067;46.850;7.578;2023-07-29T03:58:11;95091.06;;;16.38;58.59
77871;BME280;67067;46.850;7.578;2023-07-29T03:59:16;95088.41;;;16.52;58.66
77871;BME280;67067;46.850;7.578;2023-07-29T04:00:18;95084.38;;;16.55;58.64
77871;BME280;67067;46.850;7.578;2023-07-29T04:01:23;95090.50;;;16.55;58.19
77871;BME280;67067;46.850;7.578;2023-07-29T04:02:25;95085.47;;;16.54;58.20
77871;BME280;67067;46.850;7.578;2023-07-29T04:03:27;95079.53;;;16.57;58.20
77871;BME280;67067;46.850;7.578;2023-07-29T04:04:30;95082.50;;;16.55;57.99
77871;BME280;67067;46.850;7.578;2023-07-29T04:05:32;95076.66;;;16.53;58.29
77871;BME280;67067;46.850;7.578;2023-07-29T04:06:33;95076.81;;;16.43;58.37
77871;BME280;67067;46.850;7.578;2023-07-29T04:07:36;95073.78;;;16.50;58.23
77871;BME280;67067;46.850;7.578;2023-07-29T04:08:38;95069.72;;;16.52;57.86
77871;BME280;67067;46.850;7.578;2023-07-29T04:09:40;95069.72;;;16.52;58.05
77871;BME280;67067;46.850;7.578;2023-07-29T04:10:41;95068.34;;;16.55;57.94
77871;BME280;67067;46.850;7.578;2023-07-29T04:11:43;95067.56;;;16.54;58.24
77871;BME280;67067;46.850;7.578;2023-07-29T04:12:45;95076.06;;;16.42;58.18
77871;BME280;67067;46.850;7.578;2023-07-29T04:13:46;95072.97;;;16.49;58.24
77871;BME280;67067;46.850;7.578;2023-07-29T04:14:49;95070.81;;;16.51;57.98
77871;BME280;67067;46.850;7.578;2023-07-29T04:15:51;95077.47;;;16.54;58.01
77871;BME280;67067;46.850;7.578;2023-07-29T04:16:53;95076.38;;;16.55;58.01
77871;BME280;67067;46.850;7.578;2023-07-29T04:17:54;95076.66;;;16.53;58.41
77871;BME280;67067;46.850;7.578;2023-07-29T04:18:56;95074.53;;;16.36;58.22
77871;BME280;67067;46.850;7.578;2023-07-29T04:19:58;95068.72;;;16.48;58.16
77871;BME280;67067;46.850;7.578;2023-07-29T04:21:06;95070.03;;;16.51;57.87
77871;BME280;67067;46.850;7.578;2023-07-29T04:22:08;95068.63;;;16.53;58.16
77871;BME280;67067;46.850;7.578;2023-07-29T04:23:09;95066.16;;;16.43;58.29
77871;BME280;67067;46.850;7.578;2023-07-29T04:24:11;95065.69;;;16.55;57.93
77871;BME280;67067;46.850;7.578;2023-07-29T04:25:13;95068.94;;;16.52;57.54
77871;BME280;67067;46.850;7.578;2023-07-29T04:26:15;95067.94;;;16.47;57.98
77871;BME280;67067;46.850;7.578;2023-07-29T04:27:16;95067.91;;;16.33;57.94
77871;BME280;67067;46.850;7.578;2023-07-29T04:28:18;95071.00;;;16.41;58.21
77871;BME280;67067;46.850;7.578;2023-07-29T04:29:20;95073.16;;;16.39;57.94
77871;BME280;67067;46.850;7.578;2023-07-29T04:30:24;95073.97;;;16.39;58.35
77871;BME280;67067;46.850;7.578;2023-07-29T04:31:25;95074.41;;;16.27;58.57
77871;BME280;67067;46.850;7.578;2023-07-29T04:32:27;95084.16;;;16.37;58.30
77871;BME280;67067;46.850;7.578;2023-07-29T04:33:32;95080.16;;;16.34;58.01
77871;BME280;67067;46.850;7.578;2023-07-29T04:34:37;95075.41;;;16.31;58.31
77871;BME280;67067;46.850;7.578;2023-07-29T04:35:41;95073.31;;;16.28;58.06
77871;BME280;67067;46.850;7.578;2023-07-29T04:36:42;95071.25;;;16.25;58.49
77871;BME280;67067;46.850;7.578;2023-07-29T04:37:44;95070.41;;;16.11;58.68
77871;BME280;67067;46.850;7.578;2023-07-29T04:38:46;95069.66;;;16.24;58.11
77871;BME280;67067;46.850;7.578;2023-07-29T04:39:48;95077.94;;;16.23;58.25
77871;BME280;67067;46.850;7.578;2023-07-29T04:40:49;95071.00;;;16.08;58.44
77871;BME280;67067;46.850;7.578;2023-07-29T04:41:54;95079.13;;;16.16;57.98
77871;BME280;67067;46.850;7.578;2023-07-29T04:42:55;95081.59;;;16.13;57.97
77871;BME280;67067;46.850;7.578;2023-07-29T04:43:57;95086.44;;;16.11;58.09
77871;BME280;67067;46.850;7.578;2023-07-29T04:45:01;95088.00;;;16.12;58.20
77871;BME280;67067;46.850;7.578;2023-07-29T04:46:07;95088.00;;;16.12;58.30
77871;BME280;67067;46.850;7.578;2023-07-29T04:47:10;95077.91;;;16.09;58.36
77871;BME280;67067;46.850;7.578;2023-07-29T04:48:13;95085.41;;;16.07;58.56
77871;BME280;67067;46.850;7.578;2023-07-29T04:49:15;95083.84;;;16.06;58.35
77871;BME280;67067;46.850;7.578;2023-07-29T04:50:17;95087.69;;;15.94;58.69
77871;BME280;67067;46.850;7.578;2023-07-29T04:51:19;95083.84;;;16.06;58.51
77871;BME280;67067;46.850;7.578;2023-07-29T04:52:21;95091.75;;;16.11;58.14
77871;BME280;67067;46.850;7.578;2023-07-29T04:53:23;95086.13;;;16.12;58.03
77871;BME280;67067;46.850;7.578;2023-07-29T04:54:24;95087.59;;;16.04;58.38
77871;BME280;67067;46.850;7.578;2023-07-29T04:55:26;95089.50;;;16.18;58.02
77871;BME280;67067;46.850;7.578;2023-07-29T04:56:28;95097.69;;;16.08;58.28
77871;BME280;67067;46.850;7.578;2023-07-29T04:57:30;95098.03;;;16.20;58.01
77871;BME280;67067;46.850;7.578;2023-07-29T04:58:35;95100.31;;;16.27;57.86
77871;BME280;67067;46.850;7.578;2023-07-29T04:59:37;95102.13;;;16.31;58.05
77871;BME280;67067;46.850;7.578;2023-07-29T05:00:38;95106.88;;;16.34;58.11
77871;BME280;67067;46.850;7.578;2023-07-29T05:01:40;95103.47;;;16.29;58.58
77871;BME280;67067;46.850;7.578;2023-07-29T05:02:44;95106.94;;;16.48;58.24
77871;BME280;67067;46.850;7.578;2023-07-29T05:03:48;95098.03;;;16.53;58.38
77871;BME280;67067;46.850;7.578;2023-07-29T05:04:53;95093.69;;;16.57;58.53
77871;BME280;67067;46.850;7.578;2023-07-29T05:05:54;95096.25;;;16.62;58.49
77871;BME280;67067;46.850;7.578;2023-07-29T05:06:58;95099.66;;;16.68;58.26
77871;BME280;67067;46.850;7.578;2023-07-29T05:08:00;95104.38;;;16.57;58.48
77871;BME280;67067;46.850;7.578;2023-07-29T05:09:15;95104.66;;;16.75;58.06
77871;BME280;67067;46.850;7.578;2023-07-29T05:10:17;95103.66;;;16.85;57.60
77871;BME280;67067;46.850;7.578;2023-07-29T05:11:19;95109.63;;;16.96;57.31
77871;BME280;67067;46.850;7.578;2023-07-29T05:12:21;95114.78;;;17.06;57.22
77871;BME280;67067;46.850;7.578;2023-07-29T05:13:25;95110.03;;;17.17;57.40
77871;BME280;67067;46.850;7.578;2023-07-29T05:14:27;95100.13;;;17.17;57.31
77871;BME280;67067;46.850;7.578;2023-07-29T05:15:28;95096.25;;;17.24;56.59
77871;BME280;67067;46.850;7.578;2023-07-29T05:16:30;95101.09;;;17.21;56.73
77871;BME280;67067;46.850;7.578;2023-07-29T05:17:32;95108.44;;;17.02;57.56
77871;BME280;67067;46.850;7.578;2023-07-29T05:18:34;95096.84;;;17.20;56.80
77871;BME280;67067;46.850;7.578;2023-07-29T05:19:36;95094.56;;;17.28;56.50
77871;BME280;67067;46.850;7.578;2023-07-29T05:20:37;95094.28;;;17.29;56.44
77871;BME280;67067;46.850;7.578;2023-07-29T05:21:39;95098.53;;;17.16;56.52
77871;BME280;67067;46.850;7.578;2023-07-29T05:22:41;95094.56;;;17.28;56.31
77871;BME280;67067;46.850;7.578;2023-07-29T05:23:43;95100.13;;;17.17;56.53
77871;BME280;67067;46.850;7.578;2023-07-29T05:24:44;95097.56;;;17.26;56.61
77871;BME280;67067;46.850;7.578;2023-07-29T05:25:48;95100.81;;;17.23;56.42
77871;BME280;67067;46.850;7.578;2023-07-29T05:26:50;95105.06;;;17.10;56.64
77871;BME280;67067;46.850;7.578;2023-07-29T05:27:51;95099.25;;;17.22;56.24
77871;BME280;67067;46.850;7.578;2023-07-29T05:28:55;95094.66;;;17.23;56.15
77871;BME280;67067;46.850;7.578;2023-07-29T05:29:57;95091.50;;;17.20;55.62
77871;BME280;67067;46.850;7.578;2023-07-29T05:31:01;95099.31;;;17.03;56.12
77871;BME280;67067;46.850;7.578;2023-07-29T05:32:04;95093.47;;;17.01;56.26
77871;BME280;67067;46.850;7.578;2023-07-29T05:33:06;95096.66;;;17.03;56.37
77871;BME280;67067;46.850;7.578;2023-07-29T05:34:12;95101.72;;;17.04;56.43
77871;BME280;67067;46.850;7.578;2023-07-29T05:35:14;95098.72;;;17.06;56.25
77871;BME280;67067;46.850;7.578;2023-07-29T05:36:16;95096.75;;;17.12;56.14
77871;BME280;67067;46.850;7.578;2023-07-29T05:37:20;95092.59;;;17.19;56.39